AirNav   Air Wisconsin pilot careers
 
 1313 users online  

32FD Star Aviation Heliport
Riverview, Florida, USA


FAA INFORMATION EFFECTIVE 01 FEBRUARY 2018

Location

FAA Identifier: 32FD
Lat/Long: 27-54-16.0000N / 082-23-00.0000W
27-54.266667N / 082-23.000000W
27.9044444 / -82.3833333
(estimated)
Elevation: 13 ft. / 4 m (estimated)
From city: 5 miles SE of RIVERVIEW, FL
Time zone: UTC -5 (UTC -4 during Daylight Saving Time)
Zip code: 33578

Heliport Operations

Heliport use: Private use. Permission required prior to landing
Activation date: 06/2006
Control tower: no
ARTCC: MIAMI CENTER
FSS: SAINT PETERSBURG FLIGHT SERVICE STATION
Attendance: 0800-1700
Wind indicator: yes
Segmented circle: no

Heliport Communications

WX AWOS-3 at TPF (4 nm W): 118.925 (813-251-6824)
WX AWOS-3 at VDF (7 nm N): 121.125 (813-630-0924)
WX ASOS at TPA (9 nm NW): PHONE 813-873-7228
WX AWOS-3 at PCM (13 nm NE): 120.025 (813-764-8259)
WX ASOS at SPG (15 nm SW): 118.875 (727-821-4334)
WX ASOS at PIE (16 nm W): PHONE 727-531-3456
WX AWOS-3PT at LAL (20 nm E): 118.025 (863-834-2030)

Nearby radio navigation aids

VOR radial/distance  VOR name  Freq  Var
PIEr096/16.0ST PETERSBURG VORTAC116.4005W
LALr255/20.2LAKELAND VORTAC116.0001E
SRQr023/31.3SARASOTA VOR/DME117.0005W

 
NDB name  Hdg/Dist  Freq  Var  ID
COSME150/13.236805WTP - .--.

Heliport Services

Runway Information

Helipad H1

Dimensions: 50 x 50 ft. / 15 x 15 m
Surface: concrete
Traffic pattern: leftleft

Heliport Ownership and Management from official FAA records

Ownership: Privately-owned
Owner: STAR AVIATION
9625 WES KEARNEY WAY
RIVERVIEW, FL 33578
Phone (813) 421-8021
Manager: BING KEARNEY
9625 WES KEARNEY WAY
RIVERVIEW, FL 33578
Phone 813-379-3830
ADDITIONAL CONTACT ROSIE APPELBE MOORE - 813-335-8414

Heliport Operational Statistics

Aircraft based on the field: 2
Helicopters: 2
    

Additional Remarks

70 FT PLINE 300 FT N OF PAD RUNS E AND W. 50 FT PLINE W OF PAD RUNS N AND S.

Instrument Procedures

There are no published instrument procedures at 32FD.

Some nearby airports with instrument procedures:

KTPF - Peter O Knight Airport (4 nm W)
KVDF - Tampa Executive Airport (7 nm N)
KMCF - MacDill Air Force Base (8 nm SW)
KTPA - Tampa International Airport (9 nm NW)
KPCM - Plant City Airport (13 nm NE)
KSPG - Albert Whitted Airport (15 nm SW)
KPIE - St Pete-Clearwater International Airport (16 nm W)
KLAL - Lakeland Linder Regional Airport (20 nm E)
 
Loc | Ops | Rwys | IFR | FBO | Links
Com | Nav | Svcs | Stats | Notes


 
Area around 32FD (Star Aviation Heliport)
 
Road maps at: MapQuest Bing Google
 
Aerial photo
No photo
 
Sectional chart

 
Airport distance calculator
Flying to Star Aviation Heliport? Find the distance to fly.

From to 32FD

Sunrise and sunset
Times for 20-Feb-2018
 Local
(UTC-5)
 Zulu
(UTC)
Morning civil twilight06:4011:40
Sunrise07:0412:04
Sunset18:2323:23
Evening civil twilight18:4723:47

Current date and time
Zulu (UTC)  20-Feb-2018 23:45:51
Local (UTC-5)  20-Feb-2018 18:45:51
 
METAR
KTPF 
4nm W 
202335Z AUTO 00000KT 10SM SCT070 BKN080 OVC100 26/20 A3028 RMK AO2
KVDF 
7nm N 
202335Z AUTO 00000KT 10SM CLR 27/17 A3028 RMK AO2
KMCF 
8nm SW 
202331Z AUTO 25003KT 10SM -DZ SCT060 SCT070 BKN085 25/20 A3027 RMK AO2 DZB31 SLP253 FZRANO $
KTPA 
9nm NW 
202253Z 19007KT 10SM BKN060 28/19 A3026 RMK AO2 SLP247 T02780189
KPCM 
13nm NE 
202335Z AUTO 12004KT 10SM CLR 28/16 A3030 RMK AO2
KSPG 
16nm SW 
202253Z 25004KT 10SM BKN055 OVC080 26/19 A3024 RMK AO2 SLP241 T02610189
KPIE 
16nm W 
202253Z 23008KT 10SM SCT060 BKN085 26/19 A3026 RMK AO2 SLP247 T02610194 $
KLAL 
20nm E 
202250Z 13008KT 10SM SCT050 28/16 A3028
TAF
KMCF 
8nm SW 
201700Z 2017/2123 14009KT 9999 BKN040 QNH3024INS BECMG 2020/2021 13009KT 9999 BKN020 QNH3022INS BECMG 2105/2106 11009KT 9999 BKN015 QNH3028INS TEMPO 2112/2115 BKN008 BECMG 2114/2115 11010G15KT 9999 BKN020 QNH3032INS BECMG 2117/2118 10012KT 9999 SKC QNH3026INS TX32/2021Z TN18/2109Z
KTPA 
9nm NW 
202106Z 2021/2124 14009G14KT P6SM BKN050 FM210000 22006KT P6SM SCT050 FM210300 12004KT P6SM SCT050 FM210900 11009KT P6SM SCT025 TEMPO 2109/2112 BKN020 FM211700 14007KT P6SM SCT035
KPIE 
16nm W 
201735Z 2018/2118 13012KT P6SM SCT040 FM202100 16009KT P6SM BKN050 FM210200 11007KT P6SM SCT050 FM210900 11007KT P6SM SCT015 TEMPO 2112/2115 BKN015 FM211500 12007KT P6SM SCT025 TEMPO 2115/2117 BKN025 FM211700 12008KT P6SM SCT035
KLAL 
20nm E 
201735Z 2018/2118 12011G17KT P6SM BKN040 FM202000 12010KT P6SM BKN050 FM210200 10007KT P6SM SCT050 FM210900 11005KT P6SM SCT010 TEMPO 2112/2115 BKN010 FM211500 12008KT P6SM SCT025 TEMPO 2115/2117 BKN025 FM211700 11008KT P6SM SCT035
NOTAMs
Click for the latest NOTAMs
NOTAMs are issued by the DoD/FAA and will open in a separate window not controlled by AirNav.

 

 
 

Would you like to see your business listed on this page?

 If your business provides an interesting product or service to pilots, flight crews, aircraft, or users of the Star Aviation Heliport, you should consider listing it here.  To start the listing process, click on the button below
 
Add a business
 

Other Pages about Star Aviation Heliport

Update a link
 
Copyright © AirNav, LLC. All rights reserved. Privacy Policy  Contact